sensor_id;sensor_type;location;lat;lon;timestamp;temperature;humidity
3067;DHT22;1544;48.834;9.194;2024-01-10T00:00:22;-2.10;27.60
3067;DHT22;1544;48.834;9.194;2024-01-10T00:02:58;-2.10;27.60
3067;DHT22;1544;48.834;9.194;2024-01-10T00:05:34;-2.00;27.50
3067;DHT22;1544;48.834;9.194;2024-01-10T00:08:10;-2.00;27.50
3067;DHT22;1544;48.834;9.194;2024-01-10T00:10:46;-2.00;27.50
3067;DHT22;1544;48.834;9.194;2024-01-10T00:13:22;-2.00;27.50
3067;DHT22;1544;48.834;9.194;2024-01-10T00:15:58;-2.00;27.40
3067;DHT22;1544;48.834;9.194;2024-01-10T00:18:34;-1.90;27.50
3067;DHT22;1544;48.834;9.194;2024-01-10T00:21:11;-1.90;27.40
3067;DHT22;1544;48.834;9.194;2024-01-10T00:23:47;-1.90;27.40
3067;DHT22;1544;48.834;9.194;2024-01-10T00:26:23;-1.90;27.40
3067;DHT22;1544;48.834;9.194;2024-01-10T00:28:59;-1.80;27.50
3067;DHT22;1544;48.834;9.194;2024-01-10T00:31:40;-1.80;27.40
3067;DHT22;1544;48.834;9.194;2024-01-10T00:34:16;-1.80;27.40
3067;DHT22;1544;48.834;9.194;2024-01-10T00:36:52;-1.80;27.30
3067;DHT22;1544;48.834;9.194;2024-01-10T00:39:28;-1.80;27.30
3067;DHT22;1544;48.834;9.194;2024-01-10T00:42:04;-1.80;27.30
3067;DHT22;1544;48.834;9.194;2024-01-10T00:44:40;-1.80;27.40
3067;DHT22;1544;48.834;9.194;2024-01-10T00:47:16;-1.70;27.40
3067;DHT22;1544;48.834;9.194;2024-01-10T00:49:52;-1.70;27.40
3067;DHT22;1544;48.834;9.194;2024-01-10T00:52:28;-1.70;27.70
3067;DHT22;1544;48.834;9.194;2024-01-10T00:55:05;-1.70;27.50
3067;DHT22;1544;48.834;9.194;2024-01-10T00:57:41;-1.70;27.60
3067;DHT22;1544;48.834;9.194;2024-01-10T01:00:17;-1.70;27.80
3067;DHT22;1544;48.834;9.194;2024-01-10T01:02:53;-1.70;27.90
3067;DHT22;1544;48.834;9.194;2024-01-10T01:05:29;-1.70;27.90
3067;DHT22;1544;48.834;9.194;2024-01-10T01:08:05;-1.70;27.90
3067;DHT22;1544;48.834;9.194;2024-01-10T01:10:41;-1.70;27.80
3067;DHT22;1544;48.834;9.194;2024-01-10T01:13:17;-1.70;27.70
3067;DHT22;1544;48.834;9.194;2024-01-10T01:15:53;-1.70;27.70
3067;DHT22;1544;48.834;9.194;2024-01-10T01:18:29;-1.70;27.70
3067;DHT22;1544;48.834;9.194;2024-01-10T01:21:05;-1.70;27.70
3067;DHT22;1544;48.834;9.194;2024-01-10T01:23:41;-1.70;27.70
3067;DHT22;1544;48.834;9.194;2024-01-10T01:26:17;-1.70;27.70
3067;DHT22;1544;48.834;9.194;2024-01-10T01:28:54;-1.70;27.70
3067;DHT22;1544;48.834;9.194;2024-01-10T01:31:30;-1.70;27.70
3067;DHT22;1544;48.834;9.194;2024-01-10T01:34:06;-1.70;27.60
3067;DHT22;1544;48.834;9.194;2024-01-10T01:36:42;-1.70;27.60
3067;DHT22;1544;48.834;9.194;2024-01-10T01:39:18;-1.60;27.60
3067;DHT22;1544;48.834;9.194;2024-01-10T01:41:55;-1.60;27.50
3067;DHT22;1544;48.834;9.194;2024-01-10T01:44:31;-1.60;27.40
3067;DHT22;1544;48.834;9.194;2024-01-10T01:47:07;-1.60;27.40
3067;DHT22;1544;48.834;9.194;2024-01-10T01:49:44;-1.60;27.40
3067;DHT22;1544;48.834;9.194;2024-01-10T01:52:20;-1.60;27.30
3067;DHT22;1544;48.834;9.194;2024-01-10T01:54:56;-1.50;27.20
3067;DHT22;1544;48.834;9.194;2024-01-10T01:57:32;-1.50;27.20
3067;DHT22;1544;48.834;9.194;2024-01-10T02:00:09;-1.50;27.10
3067;DHT22;1544;48.834;9.194;2024-01-10T02:02:48;-1.40;27.20
3067;DHT22;1544;48.834;9.194;2024-01-10T02:05:25;-1.40;27.20
3067;DHT22;1544;48.834;9.194;2024-01-10T02:08:02;-1.40;27.10
3067;DHT22;1544;48.834;9.194;2024-01-10T02:10:38;-1.40;27.00
3067;DHT22;1544;48.834;9.194;2024-01-10T02:13:15;-1.30;27.10
3067;DHT22;1544;48.834;9.194;2024-01-10T02:15:52;-1.30;27.20
3067;DHT22;1544;48.834;9.194;2024-01-10T02:18:27;-1.30;27.20
3067;DHT22;1544;48.834;9.194;2024-01-10T02:21:04;-1.30;27.20
3067;DHT22;1544;48.834;9.194;2024-01-10T02:23:40;-1.20;27.30
3067;DHT22;1544;48.834;9.194;2024-01-10T02:26:16;-1.20;27.30
3067;DHT22;1544;48.834;9.194;2024-01-10T02:28:52;-1.20;27.30
3067;DHT22;1544;48.834;9.194;2024-01-10T02:31:28;-1.20;27.30
3067;DHT22;1544;48.834;9.194;2024-01-10T02:34:05;-1.20;27.30
3067;DHT22;1544;48.834;9.194;2024-01-10T02:36:41;-1.30;27.10
3067;DHT22;1544;48.834;9.194;2024-01-10T02:39:17;-1.30;27.00
3067;DHT22;1544;48.834;9.194;2024-01-10T02:41:53;-1.30;27.00
3067;DHT22;1544;48.834;9.194;2024-01-10T02:44:29;-1.30;27.10
3067;DHT22;1544;48.834;9.194;2024-01-10T02:47:06;-1.40;27.00
3067;DHT22;1544;48.834;9.194;2024-01-10T02:49:42;-1.40;27.00
3067;DHT22;1544;48.834;9.194;2024-01-10T02:52:18;-1.40;27.10
3067;DHT22;1544;48.834;9.194;2024-01-10T02:54:55;-1.40;27.20
3067;DHT22;1544;48.834;9.194;2024-01-10T02:57:31;-1.50;27.20
3067;DHT22;1544;48.834;9.194;2024-01-10T03:00:07;-1.50;27.30
3067;DHT22;1544;48.834;9.194;2024-01-10T03:02:44;-1.50;27.40
3067;DHT22;1544;48.834;9.194;2024-01-10T03:05:20;-1.60;27.70
3067;DHT22;1544;48.834;9.194;2024-01-10T03:07:56;-1.60;27.50
3067;DHT22;1544;48.834;9.194;2024-01-10T03:10:32;-1.60;27.50
3067;DHT22;1544;48.834;9.194;2024-01-10T03:13:08;-1.70;27.50
3067;DHT22;1544;48.834;9.194;2024-01-10T03:15:44;-1.70;27.50
3067;DHT22;1544;48.834;9.194;2024-01-10T03:18:21;-1.70;27.60
3067;DHT22;1544;48.834;9.194;2024-01-10T03:20:57;-1.70;27.60
3067;DHT22;1544;48.834;9.194;2024-01-10T03:23:33;-1.70;27.70
3067;DHT22;1544;48.834;9.194;2024-01-10T03:26:10;-1.70;27.70
3067;DHT22;1544;48.834;9.194;2024-01-10T03:28:46;-1.70;27.70
3067;DHT22;1544;48.834;9.194;2024-01-10T03:31:22;-1.60;27.80
3067;DHT22;1544;48.834;9.194;2024-01-10T03:33:58;-1.60;27.80
3067;DHT22;1544;48.834;9.194;2024-01-10T03:36:34;-1.60;27.80
3067;DHT22;1544;48.834;9.194;2024-01-10T03:39:10;-1.60;27.70
3067;DHT22;1544;48.834;9.194;2024-01-10T03:41:46;-1.60;27.80
3067;DHT22;1544;48.834;9.194;2024-01-10T03:44:23;-1.60;27.80
3067;DHT22;1544;48.834;9.194;2024-01-10T03:46:59;-1.50;27.80
3067;DHT22;1544;48.834;9.194;2024-01-10T03:49:36;-1.50;27.90
3067;DHT22;1544;48.834;9.194;2024-01-10T03:52:13;-1.50;28.00
3067;DHT22;1544;48.834;9.194;2024-01-10T03:54:49;-1.40;28.00
3067;DHT22;1544;48.834;9.194;2024-01-10T03:57:25;-1.40;28.00
3067;DHT22;1544;48.834;9.194;2024-01-10T04:00:01;-1.40;28.00
3067;DHT22;1544;48.834;9.194;2024-01-10T04:02:39;-1.40;27.90
3067;DHT22;1544;48.834;9.194;2024-01-10T04:05:15;-1.40;27.90
3067;DHT22;1544;48.834;9.194;2024-01-10T04:07:52;-1.30;27.90
3067;DHT22;1544;48.834;9.194;2024-01-10T04:10:28;-1.30;27.90
3067;DHT22;1544;48.834;9.194;2024-01-10T04:13:04;-1.30;27.90
3067;DHT22;1544;48.834;9.194;2024-01-10T04:15:40;-1.30;27.80
3067;DHT22;1544;48.834;9.194;2024-01-10T04:18:15;-1.20;27.90
3067;DHT22;1544;48.834;9.194;2024-01-10T04:20:52;-1.20;28.00
3067;DHT22;1544;48.834;9.194;2024-01-10T04:23:29;-1.20;28.00
3067;DHT22;1544;48.834;9.194;2024-01-10T04:26:07;-1.20;28.00
3067;DHT22;1544;48.834;9.194;2024-01-10T04:28:43;-1.20;28.00
3067;DHT22;1544;48.834;9.194;2024-01-10T04:31:19;-1.20;28.00
3067;DHT22;1544;48.834;9.194;2024-01-10T04:33:55;-1.20;27.90
3067;DHT22;1544;48.834;9.194;2024-01-10T04:36:31;-1.10;28.00
3067;DHT22;1544;48.834;9.194;2024-01-10T04:39:07;-1.10;27.90
3067;DHT22;1544;48.834;9.194;2024-01-10T04:41:43;-1.10;27.90
3067;DHT22;1544;48.834;9.194;2024-01-10T04:44:19;-1.10;27.70
3067;DHT22;1544;48.834;9.194;2024-01-10T04:46:55;-1.10;27.70
3067;DHT22;1544;48.834;9.194;2024-01-10T04:49:31;-1.10;27.70
3067;DHT22;1544;48.834;9.194;2024-01-10T04:52:07;-1.00;27.80
3067;DHT22;1544;48.834;9.194;2024-01-10T04:54:43;-1.10;27.40
3067;DHT22;1544;48.834;9.194;2024-01-10T04:57:19;-1.00;27.50
3067;DHT22;1544;48.834;9.194;2024-01-10T04:59:55;-1.00;27.40
3067;DHT22;1544;48.834;9.194;2024-01-10T05:02:31;-1.00;27.40
3067;DHT22;1544;48.834;9.194;2024-01-10T05:05:08;-1.00;27.40
3067;DHT22;1544;48.834;9.194;2024-01-10T05:07:44;-0.90;27.50
3067;DHT22;1544;48.834;9.194;2024-01-10T05:10:20;0.00;27.90
3067;DHT22;1544;48.834;9.194;2024-01-10T05:12:56;-0.90;27.30
3067;DHT22;1544;48.834;9.194;2024-01-10T05:15:32;-0.90;27.30
3067;DHT22;1544;48.834;9.194;2024-01-10T05:18:08;-0.90;27.30
3067;DHT22;1544;48.834;9.194;2024-01-10T05:20:44;-0.90;27.30
3067;DHT22;1544;48.834;9.194;2024-01-10T05:23:20;-0.90;27.30
3067;DHT22;1544;48.834;9.194;2024-01-10T05:25:56;-0.90;27.40
3067;DHT22;1544;48.834;9.194;2024-01-10T05:28:33;-0.90;27.40
3067;DHT22;1544;48.834;9.194;2024-01-10T05:31:09;-0.90;27.40
3067;DHT22;1544;48.834;9.194;2024-01-10T05:33:45;-0.90;27.30
3067;DHT22;1544;48.834;9.194;2024-01-10T05:36:22;-0.90;27.30
3067;DHT22;1544;48.834;9.194;2024-01-10T05:38:58;-0.80;27.40
3067;DHT22;1544;48.834;9.194;2024-01-10T05:41:34;-0.80;27.50
3067;DHT22;1544;48.834;9.194;2024-01-10T05:44:14;-0.80;27.50
3067;DHT22;1544;48.834;9.194;2024-01-10T05:46:50;-0.80;27.50
3067;DHT22;1544;48.834;9.194;2024-01-10T05:49:27;-0.80;27.50
3067;DHT22;1544;48.834;9.194;2024-01-10T05:52:03;-0.80;27.60
3067;DHT22;1544;48.834;9.194;2024-01-10T05:54:40;-0.80;27.70
3067;DHT22;1544;48.834;9.194;2024-01-10T05:57:15;-0.80;27.70
3067;DHT22;1544;48.834;9.194;2024-01-10T05:59:51;-0.90;27.50
3067;DHT22;1544;48.834;9.194;2024-01-10T06:02:31;-0.90;27.50
3067;DHT22;1544;48.834;9.194;2024-01-10T06:05:11;-0.90;27.50
3067;DHT22;1544;48.834;9.194;2024-01-10T06:07:47;-0.90;27.60
3067;DHT22;1544;48.834;9.194;2024-01-10T06:10:23;-0.90;27.70
3067;DHT22;1544;48.834;9.194;2024-01-10T06:12:59;-0.90;27.80
3067;DHT22;1544;48.834;9.194;2024-01-10T06:15:35;-1.00;27.70
3067;DHT22;1544;48.834;9.194;2024-01-10T06:18:10;-1.00;27.70
3067;DHT22;1544;48.834;9.194;2024-01-10T06:20:46;-1.00;27.60
3067;DHT22;1544;48.834;9.194;2024-01-10T06:23:23;-1.10;27.50
3067;DHT22;1544;48.834;9.194;2024-01-10T06:25:59;-1.10;27.50
3067;DHT22;1544;48.834;9.194;2024-01-10T06:28:35;-1.10;27.50
3067;DHT22;1544;48.834;9.194;2024-01-10T06:31:11;-1.10;27.60
3067;DHT22;1544;48.834;9.194;2024-01-10T06:33:48;-1.10;27.70
3067;DHT22;1544;48.834;9.194;2024-01-10T06:36:24;-1.20;27.70
3067;DHT22;1544;48.834;9.194;2024-01-10T06:39:00;-1.10;27.80
3067;DHT22;1544;48.834;9.194;2024-01-10T06:41:37;-1.20;27.70
3067;DHT22;1544;48.834;9.194;2024-01-10T06:44:13;-1.20;27.80
3067;DHT22;1544;48.834;9.194;2024-01-10T06:46:49;-1.20;27.70
3067;DHT22;1544;48.834;9.194;2024-01-10T06:49:24;-1.30;27.70
3067;DHT22;1544;48.834;9.194;2024-01-10T06:52:03;-1.30;27.70
3067;DHT22;1544;48.834;9.194;2024-01-10T06:54:41;-1.40;27.50
3067;DHT22;1544;48.834;9.194;2024-01-10T06:57:17;-1.40;27.50
3067;DHT22;1544;48.834;9.194;2024-01-10T06:59:53;-1.40;27.60
3067;DHT22;1544;48.834;9.194;2024-01-10T07:02:29;-1.40;27.60
3067;DHT22;1544;48.834;9.194;2024-01-10T07:05:09;-1.40;27.70
3067;DHT22;1544;48.834;9.194;2024-01-10T07:07:45;-1.40;27.80
3067;DHT22;1544;48.834;9.194;2024-01-10T07:10:21;-1.40;27.80
3067;DHT22;1544;48.834;9.194;2024-01-10T07:13:01;-1.50;28.00
3067;DHT22;1544;48.834;9.194;2024-01-10T07:15:39;-1.50;27.70
3067;DHT22;1544;48.834;9.194;2024-01-10T07:18:15;-1.60;27.60
3067;DHT22;1544;48.834;9.194;2024-01-10T07:20:51;-1.60;27.60
3067;DHT22;1544;48.834;9.194;2024-01-10T07:23:28;-1.60;27.60
3067;DHT22;1544;48.834;9.194;2024-01-10T07:26:04;-1.60;27.70
3067;DHT22;1544;48.834;9.194;2024-01-10T07:28:40;-1.60;27.80
3067;DHT22;1544;48.834;9.194;2024-01-10T07:31:17;-1.70;27.80
3067;DHT22;1544;48.834;9.194;2024-01-10T07:33:53;-1.70;28.00
3067;DHT22;1544;48.834;9.194;2024-01-10T07:36:32;-1.70;28.20
3067;DHT22;1544;48.834;9.194;2024-01-10T07:39:09;-1.70;28.30
3067;DHT22;1544;48.834;9.194;2024-01-10T07:41:45;-1.70;28.30
3067;DHT22;1544;48.834;9.194;2024-01-10T07:44:21;-1.70;28.20
3067;DHT22;1544;48.834;9.194;2024-01-10T07:46:57;-1.70;28.30
3067;DHT22;1544;48.834;9.194;2024-01-10T07:49:33;-1.70;28.30
3067;DHT22;1544;48.834;9.194;2024-01-10T07:52:11;-1.70;28.30
3067;DHT22;1544;48.834;9.194;2024-01-10T07:54:46;-1.80;28.30
3067;DHT22;1544;48.834;9.194;2024-01-10T07:57:23;-1.80;28.40
3067;DHT22;1544;48.834;9.194;2024-01-10T08:00:00;-1.70;28.60
3067;DHT22;1544;48.834;9.194;2024-01-10T08:02:39;-1.70;28.70
3067;DHT22;1544;48.834;9.194;2024-01-10T08:05:15;-1.60;28.80
3067;DHT22;1544;48.834;9.194;2024-01-10T08:07:51;-1.60;28.70
3067;DHT22;1544;48.834;9.194;2024-01-10T08:10:27;-1.50;28.80
3067;DHT22;1544;48.834;9.194;2024-01-10T08:13:03;-1.40;28.90
3067;DHT22;1544;48.834;9.194;2024-01-10T08:15:40;-1.40;28.80
3067;DHT22;1544;48.834;9.194;2024-01-10T08:18:17;-1.30;28.80
3067;DHT22;1544;48.834;9.194;2024-01-10T08:20:53;-1.20;28.90
3067;DHT22;1544;48.834;9.194;2024-01-10T08:23:30;-1.10;28.90
3067;DHT22;1544;48.834;9.194;2024-01-10T08:26:07;-1.00;28.90
3067;DHT22;1544;48.834;9.194;2024-01-10T08:28:44;-1.00;28.90
3067;DHT22;1544;48.834;9.194;2024-01-10T08:31:20;-0.90;28.90
3067;DHT22;1544;48.834;9.194;2024-01-10T08:33:56;-0.80;28.90
3067;DHT22;1544;48.834;9.194;2024-01-10T08:36:32;-0.70;28.90
3067;DHT22;1544;48.834;9.194;2024-01-10T08:39:08;-0.60;29.00
3067;DHT22;1544;48.834;9.194;2024-01-10T08:41:46;-0.60;28.80
3067;DHT22;1544;48.834;9.194;2024-01-10T08:44:22;-0.50;28.80
3067;DHT22;1544;48.834;9.194;2024-01-10T08:46:58;-0.40;28.80
3067;DHT22;1544;48.834;9.194;2024-01-10T08:49:34;-0.30;28.80
3067;DHT22;1544;48.834;9.194;2024-01-10T08:52:11;-0.20;28.80
3067;DHT22;1544;48.834;9.194;2024-01-10T08:54:47;-0.10;28.80
3067;DHT22;1544;48.834;9.194;2024-01-10T08:57:24;-0.10;28.70
3067;DHT22;1544;48.834;9.194;2024-01-10T09:00:02;-0.10;28.70
3067;DHT22;1544;48.834;9.194;2024-01-10T09:02:41;0.00;28.70
3067;DHT22;1544;48.834;9.194;2024-01-10T09:05:17;0.00;28.60
3067;DHT22;1544;48.834;9.194;2024-01-10T09:07:54;0.00;28.40
3067;DHT22;1544;48.834;9.194;2024-01-10T09:10:30;0.00;28.30
3067;DHT22;1544;48.834;9.194;2024-01-10T09:13:06;0.00;28.30
3067;DHT22;1544;48.834;9.194;2024-01-10T09:15:42;-0.10;28.30
3067;DHT22;1544;48.834;9.194;2024-01-10T09:18:18;-0.10;28.10
3067;DHT22;1544;48.834;9.194;2024-01-10T09:20:54;-0.10;28.10
3067;DHT22;1544;48.834;9.194;2024-01-10T09:23:32;-0.10;28.10
3067;DHT22;1544;48.834;9.194;2024-01-10T09:26:08;0.00;28.20
3067;DHT22;1544;48.834;9.194;2024-01-10T09:28:44;-0.10;28.20
3067;DHT22;1544;48.834;9.194;2024-01-10T09:31:20;-0.10;27.90
3067;DHT22;1544;48.834;9.194;2024-01-10T09:33:56;-0.10;27.90
3067;DHT22;1544;48.834;9.194;2024-01-10T09:36:33;-0.10;27.90
3067;DHT22;1544;48.834;9.194;2024-01-10T09:39:09;-0.10;27.80
3067;DHT22;1544;48.834;9.194;2024-01-10T09:41:49;-0.10;27.80
3067;DHT22;1544;48.834;9.194;2024-01-10T09:44:27;0.00;27.90
3067;DHT22;1544;48.834;9.194;2024-01-10T09:47:04;0.00;27.90
3067;DHT22;1544;48.834;9.194;2024-01-10T09:49:41;0.00;27.90
3067;DHT22;1544;48.834;9.194;2024-01-10T09:52:27;0.10;27.90
3067;DHT22;1544;48.834;9.194;2024-01-10T09:55:04;0.10;27.70
3067;DHT22;1544;48.834;9.194;2024-01-10T09:57:41;0.10;27.80
3067;DHT22;1544;48.834;9.194;2024-01-10T10:00:17;0.10;27.80
3067;DHT22;1544;48.834;9.194;2024-01-10T10:02:54;0.20;27.80
3067;DHT22;1544;48.834;9.194;2024-01-10T10:05:31;0.30;27.90
3067;DHT22;1544;48.834;9.194;2024-01-10T10:08:11;0.30;27.80
3067;DHT22;1544;48.834;9.194;2024-01-10T10:10:50;0.30;27.90
3067;DHT22;1544;48.834;9.194;2024-01-10T10:13:28;0.40;28.00
3067;DHT22;1544;48.834;9.194;2024-01-10T10:16:05;0.40;27.90
3067;DHT22;1544;48.834;9.194;2024-01-10T10:18:41;0.50;28.00
3067;DHT22;1544;48.834;9.194;2024-01-10T10:21:18;0.50;28.00
3067;DHT22;1544;48.834;9.194;2024-01-10T10:23:59;0.50;27.90
3067;DHT22;1544;48.834;9.194;2024-01-10T10:26:36;0.60;27.90
3067;DHT22;1544;48.834;9.194;2024-01-10T10:29:12;0.60;28.00
3067;DHT22;1544;48.834;9.194;2024-01-10T10:31:48;0.70;28.00
3067;DHT22;1544;48.834;9.194;2024-01-10T10:34:31;0.80;28.00
3067;DHT22;1544;48.834;9.194;2024-01-10T10:37:10;0.80;28.00
3067;DHT22;1544;48.834;9.194;2024-01-10T10:39:45;1.00;28.00
3067;DHT22;1544;48.834;9.194;2024-01-10T10:42:22;1.10;28.00
3067;DHT22;1544;48.834;9.194;2024-01-10T10:45:03;1.20;28.10
3067;DHT22;1544;48.834;9.194;2024-01-10T10:47:41;1.30;28.20
3067;DHT22;1544;48.834;9.194;2024-01-10T10:50:22;1.40;28.10
3067;DHT22;1544;48.834;9.194;2024-01-10T10:53:00;1.60;27.90
3067;DHT22;1544;48.834;9.194;2024-01-10T10:55:40;1.80;27.80
3067;DHT22;1544;48.834;9.194;2024-01-10T10:58:17;2.10;27.90
3067;DHT22;1544;48.834;9.194;2024-01-10T11:00:58;2.40;27.80
3067;DHT22;1544;48.834;9.194;2024-01-10T11:03:37;2.80;27.60
3067;DHT22;1544;48.834;9.194;2024-01-10T11:06:14;3.10;27.50
3067;DHT22;1544;48.834;9.194;2024-01-10T11:09:07;3.50;27.60
3067;DHT22;1544;48.834;9.194;2024-01-10T11:18:39;4.60;27.00
3067;DHT22;1544;48.834;9.194;2024-01-10T11:21:30;4.90;26.90
3067;DHT22;1544;48.834;9.194;2024-01-10T11:24:26;5.10;26.90
3067;DHT22;1544;48.834;9.194;2024-01-10T11:27:13;5.40;26.50
3067;DHT22;1544;48.834;9.194;2024-01-10T11:29:51;5.50;26.40
3067;DHT22;1544;48.834;9.194;2024-01-10T11:32:27;5.70;26.50
3067;DHT22;1544;48.834;9.194;2024-01-10T11:35:18;5.80;26.10
3067;DHT22;1544;48.834;9.194;2024-01-10T11:37:59;6.00;26.40
3067;DHT22;1544;48.834;9.194;2024-01-10T11:40:47;6.20;26.30
3067;DHT22;1544;48.834;9.194;2024-01-10T11:43:24;6.30;26.30
3067;DHT22;1544;48.834;9.194;2024-01-10T11:46:02;6.40;26.20
3067;DHT22;1544;48.834;9.194;2024-01-10T11:48:41;6.40;26.10
3067;DHT22;1544;48.834;9.194;2024-01-10T11:51:19;6.30;26.00
3067;DHT22;1544;48.834;9.194;2024-01-10T11:53:55;6.30;26.40
3067;DHT22;1544;48.834;9.194;2024-01-10T11:56:40;6.40;26.70
3067;DHT22;1544;48.834;9.194;2024-01-10T11:59:18;6.50;26.70
3067;DHT22;1544;48.834;9.194;2024-01-10T12:01:57;6.50;26.70
3067;DHT22;1544;48.834;9.194;2024-01-10T12:04:33;6.60;27.60
3067;DHT22;1544;48.834;9.194;2024-01-10T12:07:22;6.70;27.30
3067;DHT22;1544;48.834;9.194;2024-01-10T12:10:00;6.70;26.80
3067;DHT22;1544;48.834;9.194;2024-01-10T12:12:36;6.80;27.30
3067;DHT22;1544;48.834;9.194;2024-01-10T12:15:12;6.90;27.20
3067;DHT22;1544;48.834;9.194;2024-01-10T12:17:51;7.00;27.20
3067;DHT22;1544;48.834;9.194;2024-01-10T12:20:27;7.10;27.80
3067;DHT22;1544;48.834;9.194;2024-01-10T12:23:04;7.10;27.80
3067;DHT22;1544;48.834;9.194;2024-01-10T12:25:41;7.20;27.90
3067;DHT22;1544;48.834;9.194;2024-01-10T12:28:17;7.30;27.40
3067;DHT22;1544;48.834;9.194;2024-01-10T12:30:53;7.40;27.40
3067;DHT22;1544;48.834;9.194;2024-01-10T12:33:30;7.50;27.90
3067;DHT22;1544;48.834;9.194;2024-01-10T12:36:08;7.60;27.60
3067;DHT22;1544;48.834;9.194;2024-01-10T12:38:48;7.70;27.80
3067;DHT22;1544;48.834;9.194;2024-01-10T12:41:24;7.70;27.00
3067;DHT22;1544;48.834;9.194;2024-01-10T12:44:00;7.70;26.50
3067;DHT22;1544;48.834;9.194;2024-01-10T12:46:50;7.70;26.70
3067;DHT22;1544;48.834;9.194;2024-01-10T12:49:30;7.80;26.80
3067;DHT22;1544;48.834;9.194;2024-01-10T12:52:06;7.80;27.30
3067;DHT22;1544;48.834;9.194;2024-01-10T12:54:48;8.00;27.40
3067;DHT22;1544;48.834;9.194;2024-01-10T12:57:24;8.10;27.30
3067;DHT22;1544;48.834;9.194;2024-01-10T13:00:00;8.20;27.40
3067;DHT22;1544;48.834;9.194;2024-01-10T13:02:41;8.20;26.70
3067;DHT22;1544;48.834;9.194;2024-01-10T13:05:17;8.20;27.70
3067;DHT22;1544;48.834;9.194;2024-01-10T13:07:54;8.30;27.50
3067;DHT22;1544;48.834;9.194;2024-01-10T13:10:30;8.40;27.50
3067;DHT22;1544;48.834;9.194;2024-01-10T13:13:06;8.50;27.40
3067;DHT22;1544;48.834;9.194;2024-01-10T13:15:43;8.50;26.90
3067;DHT22;1544;48.834;9.194;2024-01-10T13:18:19;8.50;27.50
3067;DHT22;1544;48.834;9.194;2024-01-10T13:20:55;8.50;27.90
3067;DHT22;1544;48.834;9.194;2024-01-10T13:23:32;8.60;27.40
3067;DHT22;1544;48.834;9.194;2024-01-10T13:26:09;8.70;27.30
3067;DHT22;1544;48.834;9.194;2024-01-10T13:28:46;8.70;28.10
3067;DHT22;1544;48.834;9.194;2024-01-10T13:31:22;8.80;27.70
3067;DHT22;1544;48.834;9.194;2024-01-10T13:33:58;8.90;28.00
3067;DHT22;1544;48.834;9.194;2024-01-10T13:36:35;9.00;27.50
3067;DHT22;1544;48.834;9.194;2024-01-10T13:39:11;9.10;27.80
3067;DHT22;1544;48.834;9.194;2024-01-10T13:41:50;9.10;27.20
3067;DHT22;1544;48.834;9.194;2024-01-10T13:44:27;9.00;27.20
3067;DHT22;1544;48.834;9.194;2024-01-10T13:47:03;9.00;26.70
3067;DHT22;1544;48.834;9.194;2024-01-10T13:49:39;9.10;27.90
3067;DHT22;1544;48.834;9.194;2024-01-10T13:52:16;9.10;27.00
3067;DHT22;1544;48.834;9.194;2024-01-10T13:54:53;9.10;27.00
3067;DHT22;1544;48.834;9.194;2024-01-10T13:57:29;9.00;27.70
3067;DHT22;1544;48.834;9.194;2024-01-10T14:00:07;8.90;27.40
3067;DHT22;1544;48.834;9.194;2024-01-10T14:02:49;9.00;27.40
3067;DHT22;1544;48.834;9.194;2024-01-10T14:05:28;9.00;26.40
3067;DHT22;1544;48.834;9.194;2024-01-10T14:08:04;9.10;26.80
3067;DHT22;1544;48.834;9.194;2024-01-10T14:10:40;9.00;26.80
3067;DHT22;1544;48.834;9.194;2024-01-10T14:13:18;8.90;26.90
3067;DHT22;1544;48.834;9.194;2024-01-10T14:15:54;8.90;27.20
3067;DHT22;1544;48.834;9.194;2024-01-10T14:18:30;8.90;26.60
3067;DHT22;1544;48.834;9.194;2024-01-10T14:21:06;9.00;27.10
3067;DHT22;1544;48.834;9.194;2024-01-10T14:23:43;9.00;26.80
3067;DHT22;1544;48.834;9.194;2024-01-10T14:26:19;8.90;25.90
3067;DHT22;1544;48.834;9.194;2024-01-10T14:28:55;8.90;26.80
3067;DHT22;1544;48.834;9.194;2024-01-10T14:31:32;8.90;25.90
3067;DHT22;1544;48.834;9.194;2024-01-10T14:34:28;8.80;26.20
3067;DHT22;1544;48.834;9.194;2024-01-10T14:37:04;8.70;26.70
3067;DHT22;1544;48.834;9.194;2024-01-10T14:39:40;8.60;26.70
3067;DHT22;1544;48.834;9.194;2024-01-10T14:42:16;8.50;27.00
3067;DHT22;1544;48.834;9.194;2024-01-10T14:44:53;8.30;26.10
3067;DHT22;1544;48.834;9.194;2024-01-10T14:47:29;8.10;26.50
3067;DHT22;1544;48.834;9.194;2024-01-10T14:50:06;7.90;26.80
3067;DHT22;1544;48.834;9.194;2024-01-10T14:52:42;7.70;26.50
3067;DHT22;1544;48.834;9.194;2024-01-10T14:55:18;7.40;26.60
3067;DHT22;1544;48.834;9.194;2024-01-10T14:57:54;7.20;27.00
3067;DHT22;1544;48.834;9.194;2024-01-10T15:00:30;7.00;26.90
3067;DHT22;1544;48.834;9.194;2024-01-10T15:03:06;6.80;26.40
3067;DHT22;1544;48.834;9.194;2024-01-10T15:05:58;6.50;26.90
3067;DHT22;1544;48.834;9.194;2024-01-10T15:08:34;6.30;26.40
3067;DHT22;1544;48.834;9.194;2024-01-10T15:11:10;6.10;26.40
3067;DHT22;1544;48.834;9.194;2024-01-10T15:13:47;5.90;26.90
3067;DHT22;1544;48.834;9.194;2024-01-10T15:16:24;5.70;26.80
3067;DHT22;1544;48.834;9.194;2024-01-10T15:19:00;5.50;27.30
3067;DHT22;1544;48.834;9.194;2024-01-10T15:21:39;5.40;27.00
3067;DHT22;1544;48.834;9.194;2024-01-10T15:24:16;5.20;26.60
3067;DHT22;1544;48.834;9.194;2024-01-10T15:26:56;5.00;26.30
3067;DHT22;1544;48.834;9.194;2024-01-10T15:29:37;4.80;26.90
3067;DHT22;1544;48.834;9.194;2024-01-10T15:32:13;4.70;27.70
3067;DHT22;1544;48.834;9.194;2024-01-10T15:34:50;4.60;27.20
3067;DHT22;1544;48.834;9.194;2024-01-10T15:37:26;4.40;26.80
3067;DHT22;1544;48.834;9.194;2024-01-10T15:40:07;4.30;26.70
3067;DHT22;1544;48.834;9.194;2024-01-10T15:42:44;4.20;27.60
3067;DHT22;1544;48.834;9.194;2024-01-10T15:45:20;4.20;28.50
3067;DHT22;1544;48.834;9.194;2024-01-10T15:47:56;4.10;28.90
3067;DHT22;1544;48.834;9.194;2024-01-10T15:50:32;4.00;28.90
3067;DHT22;1544;48.834;9.194;2024-01-10T15:53:09;3.90;28.60
3067;DHT22;1544;48.834;9.194;2024-01-10T15:55:45;3.80;28.90
3067;DHT22;1544;48.834;9.194;2024-01-10T15:58:21;3.80;29.00
3067;DHT22;1544;48.834;9.194;2024-01-10T16:00:58;3.70;28.30
3067;DHT22;1544;48.834;9.194;2024-01-10T16:03:34;3.60;28.40
3067;DHT22;1544;48.834;9.194;2024-01-10T16:06:10;3.50;28.30
3067;DHT22;1544;48.834;9.194;2024-01-10T16:08:46;3.40;29.00
3067;DHT22;1544;48.834;9.194;2024-01-10T16:11:23;3.40;29.40
3067;DHT22;1544;48.834;9.194;2024-01-10T16:14:00;3.30;29.70
3067;DHT22;1544;48.834;9.194;2024-01-10T16:16:38;3.30;29.70
3067;DHT22;1544;48.834;9.194;2024-01-10T16:19:14;3.20;29.30
3067;DHT22;1544;48.834;9.194;2024-01-10T16:21:50;3.20;29.40
3067;DHT22;1544;48.834;9.194;2024-01-10T16:24:26;3.10;29.20
3067;DHT22;1544;48.834;9.194;2024-01-10T16:27:03;3.00;29.20
3067;DHT22;1544;48.834;9.194;2024-01-10T16:29:39;2.90;29.40
3067;DHT22;1544;48.834;9.194;2024-01-10T16:32:15;2.90;29.60
3067;DHT22;1544;48.834;9.194;2024-01-10T16:34:51;2.80;29.40
3067;DHT22;1544;48.834;9.194;2024-01-10T16:37:30;2.70;29.60
3067;DHT22;1544;48.834;9.194;2024-01-10T16:40:06;2.70;29.50
3067;DHT22;1544;48.834;9.194;2024-01-10T16:42:43;2.60;29.30
3067;DHT22;1544;48.834;9.194;2024-01-10T16:45:20;2.60;29.50
3067;DHT22;1544;48.834;9.194;2024-01-10T16:47:56;2.50;29.60
3067;DHT22;1544;48.834;9.194;2024-01-10T16:50:34;2.50;30.00
3067;DHT22;1544;48.834;9.194;2024-01-10T16:53:10;2.40;29.90
3067;DHT22;1544;48.834;9.194;2024-01-10T16:55:46;2.30;29.80
3067;DHT22;1544;48.834;9.194;2024-01-10T16:58:22;2.30;29.60
3067;DHT22;1544;48.834;9.194;2024-01-10T17:00:58;2.20;29.50
3067;DHT22;1544;48.834;9.194;2024-01-10T17:03:35;2.20;29.40
3067;DHT22;1544;48.834;9.194;2024-01-10T17:06:11;2.10;29.30
3067;DHT22;1544;48.834;9.194;2024-01-10T17:08:47;2.10;29.40
3067;DHT22;1544;48.834;9.194;2024-01-10T17:11:23;2.00;29.30
3067;DHT22;1544;48.834;9.194;2024-01-10T17:13:59;2.00;29.50
3067;DHT22;1544;48.834;9.194;2024-01-10T17:16:35;1.90;29.50
3067;DHT22;1544;48.834;9.194;2024-01-10T17:19:12;1.90;29.40